サンティアゴ の空港の天気 - METARとTAF

アルトゥーロ・メリノ・ベニテス国際空港(サンティアゴ) ( SCEL / SCL ) - チリ サンティアゴ
飛行場実況気象(Metar)
観測時間08/16 21:00 CLST (08/17 00:00 UTC)
風向・風速南南東 3m/s
視程10km以上
天気現象
なし
気温16℃
湿度55%
気圧1019hPa
METARSCEL 170000Z 15006KT CAVOK 16/07 Q1019 NOSIG
過去の天気等 Google飛行場航空写真 Wunderground天気予報

過去48時間のMETAR

飛行場予報(TAF)
発表時間: 8/16 19:00 CLST (8/16 22:00 UTC)
予報対象時間: 16日21時 CLST ~ 17日21時 CLST
風向・風速南南西 4m/s
視程10km以上
なし
16日23時 CLST ~ 17日1時 CLST に徐々に
風向・風速南南東 2m/s
視程8000m
なし
17日5時 CLST ~ 17日11時 CLST に一時的に
風向・風速不定 1m/s
視程4000m
天気現象もや
なし
17日13時 CLST ~ 17日15時 CLST に徐々に
風向・風速南 4m/s
17日16時 CLST ~ 17日18時 CLST に徐々に
風向・風速南南西 4m/s
視程10km以上
全天の4割程度の雲 雲底高度 4880m
全天の8割程度の雲 雲底高度 5490m
TAF SCEL 162200Z 1700/1724 20008KT CAVOK TX20/1719Z TN05/1711Z
BECMG 1702/1704 16004KT 8000 NSC
TEMPO 1708/1714 VRB02KT 4000 BR NSC
BECMG 1716/1718 18007KT
BECMG 1719/1721 21008KT 9999 SCT160 BKN180